Time;durP1;ratioP1;P1;durP2;ratioP2;P2;SDS_P1;SDS_P2;PMS_P1;PMS_P2;Temp;Humidity;BMP_temperature;BMP_pressure;BME280_temperature;BME280_humidity;BME280_pressure;Samples;Min_cycle;Max_cycle;Signal;HPM_P1;HPM_P2
2022/07/22 00:00:08;;;;;;;12.85;3.95;;;17.00;99.90;;;;;;6139863;23;20016;-85
2022/07/22 00:02:34;;;;;;;9.80;3.75;;;17.10;99.90;;;;;;6114939;23;20013;-88
2022/07/22 00:05:00;;;;;;;12.82;4.22;;;17.00;99.90;;;;;;6091771;23;20181;-85
2022/07/22 00:07:53;;;;;;;;;;;16.80;99.90;;;;;;6140037;23;20016;-86
2022/07/22 00:10:19;;;;;;;10.95;4.15;;;17.00;99.90;;;;;;6140265;23;20094;-85
2022/07/22 00:12:45;;;;;;;10.75;4.47;;;16.80;99.90;;;;;;6116001;23;20009;-84
2022/07/22 00:15:10;;;;;;;7.82;4.20;;;17.00;99.90;;;;;;6092251;23;20021;-86
2022/07/22 00:17:36;;;;;;;9.35;3.53;;;16.70;99.90;;;;;;6139240;23;20014;-86
2022/07/22 00:20:04;;;;;;;12.70;4.20;;;17.00;99.90;;;;;;6140265;23;20231;-86
2022/07/22 00:22:30;;;;;;;8.93;3.63;;;16.80;99.90;;;;;;6116765;23;20191;-85
2022/07/22 00:24:55;;;;;;;10.63;4.43;;;16.90;99.90;;;;;;6144425;23;20041;-86
2022/07/22 00:27:21;;;;;;;7.28;3.60;;;16.80;99.90;;;;;;6143443;23;20182;-86
2022/07/22 00:29:47;;;;;;;10.93;3.58;;;16.90;99.90;;;;;;6120240;23;20022;-87
2022/07/22 00:32:13;;;;;;;9.32;3.60;;;16.90;99.90;;;;;;6117181;23;20005;-87
2022/07/22 00:34:38;;;;;;;10.10;4.03;;;16.60;99.90;;;;;;6091400;23;20081;-85
2022/07/22 00:37:06;;;;;;;7.97;3.30;;;16.90;99.90;;;;;;6091408;23;20020;-84
2022/07/22 00:40:12;;;;;;;8.63;3.47;;;16.80;99.90;;;;;;6138421;23;20017;-84
2022/07/22 00:42:37;;;;;;;12.30;3.80;;;16.60;99.90;;;;;;6114782;23;20013;-84
2022/07/22 00:45:04;;;;;;;10.02;3.70;;;16.50;99.90;;;;;;6139891;23;20179;-88
2022/07/22 00:47:30;;;;;;;7.50;3.30;;;16.80;99.90;;;;;;6115096;23;20014;-85
2022/07/22 00:49:56;;;;;;;10.52;3.28;;;16.40;99.90;;;;;;6091848;23;20073;-86
2022/07/22 00:52:22;;;;;;;9.85;2.80;;;16.40;99.90;;;;;;6114723;23;20291;-85
2022/07/22 00:54:48;;;;;;;11.30;2.80;;;16.50;99.90;;;;;;6091583;23;20013;-85
2022/07/22 00:57:17;;;;;;;8.40;3.00;;;16.70;99.90;;;;;;6091097;23;20020;-84
2022/07/22 00:59:43;;;;;;;6.65;3.03;;;16.50;99.90;;;;;;6164261;23;20176;-85
2022/07/22 01:02:09;;;;;;;9.32;3.33;;;16.60;99.90;;;;;;6115184;23;20044;-84
2022/07/22 01:04:35;;;;;;;7.40;2.78;;;16.60;99.90;;;;;;6115291;23;20318;-85
2022/07/22 01:07:04;;;;;;;10.10;2.70;;;16.50;99.90;;;;;;6139783;23;20037;-85
2022/07/22 01:09:29;;;;;;;6.45;2.60;;;16.50;99.90;;;;;;6114187;23;20009;-83
2022/07/22 01:12:02;;;;;;;6.72;2.47;;;16.40;99.90;;;;;;6138570;23;20017;-84
2022/07/22 01:14:28;;;;;;;9.68;2.47;;;16.40;99.90;;;;;;6114430;23;20013;-85
2022/07/22 01:17:05;;;;;;;16.45;3.13;;;16.20;99.90;;;;;;6114964;23;20330;-84
2022/07/22 01:19:36;;;;;;;7.22;3.03;;;16.10;99.90;;;;;;6139054;23;20063;-85
2022/07/22 01:22:03;;;;;;;10.70;2.72;;;16.10;99.90;;;;;;6115010;23;20013;-85
2022/07/22 01:24:28;;;;;;;6.40;2.13;;;16.30;99.90;;;;;;6138362;23;20022;-85
2022/07/22 01:26:54;;;;;;;7.32;2.70;;;16.30;99.90;;;;;;6139759;23;20013;-85
2022/07/22 01:29:20;;;;;;;6.70;2.47;;;16.30;99.90;;;;;;6162856;23;20025;-85
2022/07/22 01:31:46;;;;;;;6.80;2.55;;;16.10;99.90;;;;;;6139897;23;20020;-86
2022/07/22 01:34:11;;;;;;;6.40;2.30;;;16.00;99.90;;;;;;6091042;23;20013;-84
2022/07/22 01:36:37;;;;;;;6.60;2.78;;;16.10;99.90;;;;;;6090596;23;20235;-85
2022/07/22 01:39:05;;;;;;;6.22;2.30;;;16.00;99.90;;;;;;6114917;23;20271;-86
2022/07/22 01:41:32;;;;;;;8.88;2.90;;;16.00;99.90;;;;;;6139628;23;20017;-83
2022/07/22 01:43:58;;;;;;;5.55;2.30;;;16.20;99.90;;;;;;6139564;23;20041;-84
2022/07/22 01:46:24;;;;;;;7.60;2.80;;;15.90;99.90;;;;;;6139644;23;20009;-84
2022/07/22 01:48:51;;;;;;;7.45;2.45;;;16.10;99.90;;;;;;6115038;23;20014;-84
2022/07/22 01:51:18;;;;;;;6.55;2.03;;;15.90;99.90;;;;;;6140371;23;20017;-88
2022/07/22 01:53:44;;;;;;;6.97;1.98;;;16.10;99.90;;;;;;6091894;23;20283;-83
2022/07/22 01:56:10;;;;;;;8.18;2.75;;;16.00;99.90;;;;;;6091850;23;20013;-86
2022/07/22 01:58:35;;;;;;;7.63;2.28;;;16.10;99.90;;;;;;6114727;23;20036;-85
2022/07/22 02:01:01;;;;;;;6.18;1.98;;;15.80;99.90;;;;;;6091211;23;20073;-83
2022/07/22 02:03:27;;;;;;;5.38;2.40;;;16.00;99.90;;;;;;6138725;23;20013;-86
2022/07/22 02:05:52;;;;;;;9.10;2.53;;;15.70;99.90;;;;;;6115065;23;20005;-83
2022/07/22 02:08:18;;;;;;;5.70;2.10;;;15.80;99.90;;;;;;6114434;23;20017;-84
2022/07/22 02:10:44;;;;;;;5.03;2.08;;;15.90;99.90;;;;;;6115172;23;20013;-83
2022/07/22 02:13:10;;;;;;;5.68;2.38;;;15.90;99.90;;;;;;6164002;23;20017;-83
2022/07/22 02:15:36;;;;;;;5.82;1.80;;;15.80;99.90;;;;;;6090926;23;20037;-84
2022/07/22 02:18:17;;;;;;;7.53;2.20;;;15.90;99.90;;;;;;6115172;23;20016;-84
2022/07/22 02:20:45;;;;;;;6.13;2.28;;;15.80;99.90;;;;;;6114225;23;20057;-83
2022/07/22 02:23:11;;;;;;;5.97;2.10;;;15.80;99.90;;;;;;6114413;23;20049;-83
2022/07/22 02:25:38;;;;;;;5.15;2.45;;;15.70;99.90;;;;;;6114554;23;20220;-86
2022/07/22 02:28:04;;;;;;;5.43;2.45;;;15.90;99.90;;;;;;6120214;23;20307;-84
2022/07/22 02:30:30;;;;;;;6.40;2.33;;;15.80;99.90;;;;;;6168184;23;20024;-87
2022/07/22 02:33:05;;;;;;;8.93;2.13;;;15.70;99.90;;;;;;6168790;23;20064;-86
2022/07/22 02:35:37;;;;;;;6.95;2.00;;;15.80;99.90;;;;;;6167979;23;20017;-88
2022/07/22 02:38:08;;;;;;;8.18;2.20;;;15.70;99.90;;;;;;6145055;23;20012;-86
2022/07/22 02:40:34;;;;;;;7.45;2.35;;;15.70;99.90;;;;;;6144494;23;20019;-87
2022/07/22 02:43:06;;;;;;;6.55;2.63;;;15.70;99.90;;;;;;6119742;23;20013;-85
2022/07/22 02:45:32;;;;;;;11.13;2.10;;;15.80;99.90;;;;;;6144429;23;20019;-86
2022/07/22 02:48:07;;;;;;;9.05;2.40;;;15.70;99.90;;;;;;6144414;23;20052;-85
2022/07/22 02:50:33;;;;;;;7.57;3.00;;;15.90;99.90;;;;;;6192971;23;20044;-84
2022/07/22 02:53:02;;;;;;;5.88;2.63;;;15.90;99.90;;;;;;6169288;23;20265;-85
2022/07/22 02:55:33;;;;;;;7.15;2.08;;;15.70;99.90;;;;;;6169746;23;20017;-85
2022/07/22 02:58:08;;;;;;;5.50;2.10;;;15.80;99.90;;;;;;6220461;23;20068;-86
2022/07/22 03:00:37;;;;;;;9.82;2.47;;;15.60;99.90;;;;;;6121113;23;20298;-86
2022/07/22 03:03:03;;;;;;;7.70;2.33;;;15.70;99.90;;;;;;6145665;23;20013;-87
2022/07/22 03:05:30;;;;;;;6.72;2.10;;;15.90;99.90;;;;;;6170189;23;20012;-84
2022/07/22 03:07:55;;;;;;;5.53;2.17;;;15.70;99.90;;;;;;6170233;23;20097;-86
2022/07/22 03:10:22;;;;;;;4.95;2.38;;;15.60;99.90;;;;;;6195609;23;20268;-84
2022/07/22 03:12:47;;;;;;;6.60;2.10;;;15.80;99.90;;;;;;6171329;23;20012;-86
2022/07/22 03:15:13;;;;;;;6.72;2.30;;;15.70;99.90;;;;;;6146302;23;20071;-86
2022/07/22 03:17:39;;;;;;;7.38;2.22;;;15.60;99.90;;;;;;6170332;23;20067;-86
2022/07/22 03:20:07;;;;;;;6.80;1.92;;;15.70;99.90;;;;;;6169982;23;20322;-84
2022/07/22 03:22:36;;;;;;;7.60;2.20;;;15.60;99.90;;;;;;6170086;23;20013;-86
2022/07/22 03:25:09;;;;;;;5.13;2.20;;;15.80;99.90;;;;;;6120836;23;20048;-85
2022/07/22 03:27:45;;;;;;;7.90;2.30;;;15.80;99.90;;;;;;6144940;23;20017;-86
2022/07/22 03:30:11;;;;;;;5.90;2.00;;;15.70;99.90;;;;;;6121045;23;20025;-86
2022/07/22 03:32:37;;;;;;;6.32;1.88;;;15.80;99.90;;;;;;6169432;23;20009;-86
2022/07/22 03:35:03;;;;;;;3.80;1.98;;;15.60;99.90;;;;;;6195868;23;20009;-84
2022/07/22 03:37:29;;;;;;;3.92;1.60;;;15.60;99.90;;;;;;6194383;23;20013;-84
2022/07/22 03:39:55;;;;;;;4.95;2.17;;;15.50;99.90;;;;;;6194731;23;20076;-84
2022/07/22 03:42:21;;;;;;;3.70;1.92;;;15.50;99.90;;;;;;6144930;23;20013;-83
2022/07/22 03:44:46;;;;;;;4.57;1.83;;;15.40;99.90;;;;;;6169051;23;20013;-83
2022/07/22 03:47:17;;;;;;;4.63;2.05;;;15.50;99.90;;;;;;6145180;23;20333;-84
2022/07/22 03:49:43;;;;;;;4.28;1.85;;;15.60;99.90;;;;;;6169877;23;20303;-83
2022/07/22 03:52:08;;;;;;;6.78;2.03;;;15.50;99.90;;;;;;6169536;23;20024;-84
2022/07/22 03:54:34;;;;;;;7.78;2.10;;;15.60;99.90;;;;;;6169924;23;20051;-83
2022/07/22 03:57:00;;;;;;;6.30;2.15;;;15.60;99.90;;;;;;6169841;23;20021;-85
2022/07/22 03:59:25;;;;;;;6.30;2.28;;;15.50;99.90;;;;;;6170150;23;20017;-82
2022/07/22 04:01:51;;;;;;;4.05;1.83;;;15.60;99.90;;;;;;6169758;23;20028;-83
2022/07/22 04:04:17;;;;;;;4.95;2.00;;;14.70;99.90;;;;;;6170372;23;20036;-85
2022/07/22 04:06:43;;;;;;;8.75;3.15;;;15.50;99.90;;;;;;6169625;23;20087;-84
2022/07/22 04:09:08;;;;;;;6.78;2.00;;;15.50;99.90;;;;;;6170089;23;20190;-85
2022/07/22 04:11:34;;;;;;;9.73;1.90;;;15.60;99.90;;;;;;6169479;23;20252;-85
2022/07/22 04:14:00;;;;;;;8.27;2.10;;;15.50;99.90;;;;;;6169949;23;20068;-82
2022/07/22 04:16:26;;;;;;;5.75;1.83;;;15.70;99.90;;;;;;6169505;23;20191;-84
2022/07/22 04:18:52;;;;;;;4.55;1.60;;;15.70;99.90;;;;;;6145260;23;20303;-85
2022/07/22 04:21:17;;;;;;;5.07;1.88;;;15.60;99.90;;;;;;6169328;23;20021;-83
2022/07/22 04:23:45;;;;;;;5.22;1.63;;;15.60;99.90;;;;;;6145329;23;20083;-86
2022/07/22 04:26:11;;;;;;;4.72;1.52;;;15.50;99.90;;;;;;6169056;23;20062;-85
2022/07/22 04:28:37;;;;;;;6.57;2.38;;;15.50;99.90;;;;;;6169783;23;20021;-86
2022/07/22 04:31:03;;;;;;;5.28;1.65;;;15.50;99.90;;;;;;6169726;23;20012;-86
2022/07/22 04:33:29;;;;;;;7.13;1.95;;;15.50;99.90;;;;;;6169134;23;20016;-87
2022/07/22 04:35:56;;;;;;;4.50;1.88;;;15.60;99.90;;;;;;6194123;23;20487;-85
2022/07/22 04:38:22;;;;;;;3.13;1.73;;;15.60;99.90;;;;;;6168412;23;20250;-86
2022/07/22 04:40:48;;;;;;;5.82;1.90;;;15.50;99.90;;;;;;6144097;23;20021;-86
2022/07/22 04:43:14;;;;;;;5.03;1.92;;;15.60;99.90;;;;;;6141189;23;20013;-86
2022/07/22 04:45:39;;;;;;;3.70;1.65;;;15.60;99.90;;;;;;6168457;23;20612;-86
2022/07/22 04:48:18;;;;;;;4.70;2.03;;;15.60;99.90;;;;;;6168947;23;20063;-86
2022/07/22 04:50:44;;;;;;;7.18;2.30;;;15.50;99.90;;;;;;6119921;23;20226;-85
2022/07/22 04:53:10;;;;;;;5.53;1.92;;;15.60;99.90;;;;;;6143628;23;20012;-85
2022/07/22 04:55:42;;;;;;;6.43;2.00;;;15.60;99.90;;;;;;6167459;23;20048;-84
2022/07/22 04:58:08;;;;;;;6.53;1.88;;;15.60;99.90;;;;;;6168001;23;20123;-84
2022/07/22 05:00:34;;;;;;;7.13;1.95;;;15.70;99.90;;;;;;6143632;23;20012;-85
2022/07/22 05:02:59;;;;;;;6.07;2.47;;;15.50;99.90;;;;;;6167921;23;20640;-84
2022/07/22 05:05:25;;;;;;;6.30;2.00;;;15.10;99.90;;;;;;6168306;23;20060;-84
2022/07/22 05:07:51;;;;;;;4.40;2.03;;;15.70;99.90;;;;;;6143688;23;20040;-85
2022/07/22 05:10:17;;;;;;;4.78;1.73;;;15.70;99.90;;;;;;6143687;23;20009;-83
2022/07/22 05:12:43;;;;;;;3.65;1.70;;;15.50;99.90;;;;;;6167906;23;20061;-83
2022/07/22 05:15:31;;;;;;;4.22;1.80;;;15.70;99.90;;;;;;6167932;23;20020;-83
2022/07/22 05:17:57;;;;;;;5.88;1.90;;;15.80;99.90;;;;;;6167474;23;20013;-84
2022/07/22 05:20:25;;;;;;;9.48;2.00;;;15.70;99.90;;;;;;6167946;23;20021;-82
2022/07/22 05:22:51;;;;;;;6.10;2.20;;;15.70;99.90;;;;;;6167364;23;20337;-83
2022/07/22 05:25:17;;;;;;;4.55;2.00;;;15.60;99.90;;;;;;6143409;23;20012;-83
2022/07/22 05:27:54;;;;;;;5.90;2.03;;;15.70;99.90;;;;;;6169158;23;20037;-87
2022/07/22 05:30:20;;;;;;;5.45;1.95;;;15.60;99.90;;;;;;6145221;23;20017;-87
2022/07/22 05:32:46;;;;;;;4.30;2.13;;;15.60;99.90;;;;;;6169052;23;20013;-84
2022/07/22 05:35:11;;;;;;;5.95;1.80;;;15.70;99.90;;;;;;6169543;23;20065;-84
2022/07/22 05:37:37;;;;;;;5.90;1.77;;;15.60;99.90;;;;;;6144648;23;20259;-84
2022/07/22 05:40:04;;;;;;;5.38;1.77;;;15.60;99.90;;;;;;6194411;23;20215;-85
2022/07/22 05:42:29;;;;;;;3.63;1.63;;;15.70;99.90;;;;;;6169149;23;20202;-84
2022/07/22 05:44:55;;;;;;;6.35;1.63;;;15.70;99.90;;;;;;6144567;23;20072;-84
2022/07/22 05:47:21;;;;;;;4.70;1.88;;;15.80;99.90;;;;;;6169404;23;20024;-85
2022/07/22 05:49:46;;;;;;;5.22;1.90;;;15.70;99.90;;;;;;6168964;23;20036;-84
2022/07/22 05:52:12;;;;;;;6.07;1.80;;;15.70;99.90;;;;;;6169456;23;20017;-84
2022/07/22 05:54:39;;;;;;;7.45;2.33;;;15.80;99.90;;;;;;6144013;23;20194;-84
2022/07/22 05:57:09;;;;;;;7.80;2.00;;;15.80;99.90;;;;;;6193850;23;20021;-85
2022/07/22 05:59:36;;;;;;;5.18;1.73;;;15.80;99.90;;;;;;6194100;23;20286;-85
2022/07/22 06:02:03;;;;;;;4.93;1.60;;;15.90;99.90;;;;;;6145155;23;20031;-84
2022/07/22 06:04:29;;;;;;;4.75;1.92;;;16.00;99.90;;;;;;6143879;23;20055;-84
2022/07/22 06:06:57;;;;;;;5.10;1.63;;;16.00;99.90;;;;;;6169655;23;20017;-85
2022/07/22 06:09:23;;;;;;;4.50;1.58;;;16.00;99.90;;;;;;6168516;23;20017;-85
2022/07/22 06:11:49;;;;;;;4.22;1.80;;;16.00;99.90;;;;;;6219020;23;20198;-84
2022/07/22 06:14:14;;;;;;;5.45;2.30;;;16.10;99.90;;;;;;6143827;23;20198;-85
2022/07/22 06:16:43;;;;;;;3.80;1.55;;;16.10;99.90;;;;;;6143060;23;20020;-82
2022/07/22 06:19:09;;;;;;;4.40;2.15;;;16.10;99.90;;;;;;6168034;23;20048;-85
2022/07/22 06:21:36;;;;;;;3.70;1.77;;;16.20;99.90;;;;;;6168549;23;20013;-83
2022/07/22 06:24:01;;;;;;;3.40;1.55;;;16.10;99.90;;;;;;6167449;23;20020;-86
2022/07/22 06:26:27;;;;;;;6.15;1.70;;;16.10;99.90;;;;;;6119611;23;20035;-85
2022/07/22 06:28:53;;;;;;;4.20;1.65;;;16.10;99.90;;;;;;6144669;23;20239;-90
2022/07/22 06:31:19;;;;;;;3.88;1.70;;;16.10;99.90;;;;;;6146246;23;20072;-89
2022/07/22 06:33:44;;;;;;;6.18;1.58;;;16.20;99.90;;;;;;6170374;23;20016;-84
2022/07/22 06:36:11;;;;;;;3.95;1.75;;;16.30;99.90;;;;;;6171068;23;20017;-87
2022/07/22 06:38:37;;;;;;;5.25;1.90;;;16.30;99.90;;;;;;6146797;23;20235;-84
2022/07/22 06:41:06;;;;;;;5.18;1.92;;;16.30;99.90;;;;;;6146941;23;20055;-82
2022/07/22 06:43:31;;;;;;;4.65;1.40;;;16.40;99.90;;;;;;6170662;23;20044;-83
2022/07/22 06:45:57;;;;;;;5.78;1.70;;;16.40;99.90;;;;;;6122083;23;20076;-86
2022/07/22 06:48:26;;;;;;;5.18;1.70;;;16.40;99.90;;;;;;6171049;23;20009;-84
2022/07/22 06:50:55;;;;;;;4.05;1.70;;;16.50;99.90;;;;;;6145944;23;20013;-83
2022/07/22 06:53:21;;;;;;;6.93;1.40;;;16.50;99.90;;;;;;6170581;23;20017;-83
2022/07/22 06:55:49;;;;;;;5.28;1.50;;;16.70;99.90;;;;;;6170821;23;20013;-83
2022/07/22 06:58:14;;;;;;;5.85;1.77;;;16.60;99.90;;;;;;6170898;23;20063;-81
2022/07/22 07:00:40;;;;;;;3.97;1.40;;;16.60;99.90;;;;;;6169757;23;20187;-81
2022/07/22 07:03:06;;;;;;;3.83;1.40;;;16.80;99.90;;;;;;6145502;23;20036;-82
2022/07/22 07:05:35;;;;;;;5.18;1.40;;;16.80;99.90;;;;;;6145386;23;20035;-85
2022/07/22 07:08:11;;;;;;;2.72;1.35;;;16.70;99.90;;;;;;6170538;23;20009;-86
2022/07/22 07:10:37;;;;;;;1.73;1.40;;;16.80;99.90;;;;;;6146333;23;20021;-87
2022/07/22 07:13:03;;;;;;;8.60;1.70;;;16.80;99.90;;;;;;6170250;23;20353;-83
2022/07/22 07:15:28;;;;;;;4.90;1.48;;;16.90;99.90;;;;;;6169847;23;20040;-84
2022/07/22 07:17:56;;;;;;;2.65;1.30;;;16.90;99.90;;;;;;6220595;23;20068;-84
2022/07/22 07:20:23;;;;;;;4.43;1.48;;;16.90;99.90;;;;;;6173536;23;20235;-85
2022/07/22 07:22:54;;;;;;;3.28;1.30;;;17.10;99.90;;;;;;6147667;23;20013;-85
2022/07/22 07:25:20;;;;;;;3.70;1.50;;;17.20;99.90;;;;;;6172994;23;20013;-86
2022/07/22 07:27:46;;;;;;;2.90;1.45;;;16.50;99.90;;;;;;6171133;23;20198;-84
2022/07/22 07:30:12;;;;;;;3.08;1.38;;;17.30;99.90;;;;;;6169964;23;20017;-79
2022/07/22 07:32:38;;;;;;;5.80;1.40;;;17.20;99.90;;;;;;6168980;23;20015;-80
2022/07/22 07:35:09;;;;;;;4.20;1.40;;;17.30;99.90;;;;;;6144769;23;20059;-81
2022/07/22 07:37:35;;;;;;;6.07;1.40;;;17.30;99.90;;;;;;6171681;23;20013;-83
2022/07/22 07:40:01;;;;;;;2.67;1.10;;;17.30;99.90;;;;;;6170307;23;20032;-80
2022/07/22 07:42:27;;;;;;;2.58;1.10;;;17.40;99.90;;;;;;6170089;23;20243;-81
2022/07/22 07:44:53;;;;;;;4.55;1.10;;;17.40;99.90;;;;;;6171931;23;20106;-82
2022/07/22 07:47:20;;;;;;;3.00;1.30;;;17.30;99.90;;;;;;6170920;23;20016;-85
2022/07/22 07:49:49;;;;;;;2.33;0.93;;;17.40;99.90;;;;;;6170239;23;20040;-86
2022/07/22 07:52:16;;;;;;;2.53;1.23;;;17.50;99.90;;;;;;6170084;23;20037;-85
2022/07/22 07:54:42;;;;;;;2.45;1.00;;;17.40;99.90;;;;;;6145026;23;20017;-86
2022/07/22 07:57:11;;;;;;;3.58;1.20;;;17.40;99.90;;;;;;6145809;23;20012;-84
2022/07/22 07:59:39;;;;;;;4.50;1.00;;;17.50;99.90;;;;;;6170366;23;20068;-85
2022/07/22 08:02:06;;;;;;;4.20;1.23;;;17.50;99.90;;;;;;6145532;23;20012;-87
2022/07/22 08:04:32;;;;;;;2.53;1.38;;;17.50;99.90;;;;;;6144879;23;20047;-88
2022/07/22 08:06:58;;;;;;;3.10;1.10;;;17.40;99.90;;;;;;6169987;23;20115;-85
2022/07/22 08:09:24;;;;;;;3.40;1.20;;;17.50;99.90;;;;;;6169812;23;20219;-86
2022/07/22 08:11:51;;;;;;;3.58;1.20;;;17.50;99.90;;;;;;6169767;23;20058;-86
2022/07/22 08:14:17;;;;;;;2.00;0.90;;;17.50;99.90;;;;;;6144971;23;20202;-86
2022/07/22 08:16:45;;;;;;;2.55;1.10;;;17.60;99.90;;;;;;6168513;23;20017;-82
2022/07/22 08:19:33;;;;;;;4.43;1.10;;;17.60;99.90;;;;;;6168503;23;20009;-85
2022/07/22 08:21:59;;;;;;;4.50;1.80;;;17.50;99.90;;;;;;6166077;23;20017;-83
2022/07/22 08:24:24;;;;;;;4.93;1.10;;;17.70;99.90;;;;;;6167667;23;20013;-84
2022/07/22 08:26:50;;;;;;;3.15;1.42;;;17.70;99.90;;;;;;6143413;23;20112;-83
2022/07/22 08:29:16;;;;;;;3.35;1.13;;;17.60;99.90;;;;;;6168055;23;20024;-84
2022/07/22 08:31:45;;;;;;;2.58;1.20;;;17.40;99.90;;;;;;6166385;23;20020;-82
2022/07/22 08:34:11;;;;;;;2.85;1.20;;;18.10;99.90;;;;;;6167950;23;20009;-84
2022/07/22 08:36:36;;;;;;;4.47;1.50;;;17.50;99.90;;;;;;6167700;23;20294;-85
2022/07/22 08:39:03;;;;;;;2.60;1.10;;;17.50;99.90;;;;;;6167575;23;20024;-68
2022/07/22 08:41:41;;;;;;;3.25;1.10;;;17.40;99.90;;;;;;6166191;23;20176;-83
2022/07/22 08:44:09;;;;;;;3.33;1.20;;;17.70;99.90;;;;;;6145161;23;20235;-83
2022/07/22 08:46:36;;;;;;;4.78;1.35;;;17.50;99.90;;;;;;6142760;23;20013;-82
2022/07/22 08:49:03;;;;;;;4.00;1.33;;;17.40;99.90;;;;;;6143356;23;20005;-83
2022/07/22 08:51:33;;;;;;;4.35;1.10;;;17.20;99.90;;;;;;6166422;23;20017;-83
2022/07/22 08:54:10;;;;;;;5.40;1.30;;;17.10;99.90;;;;;;6142613;23;20021;-83
2022/07/22 08:56:39;;;;;;;3.53;1.30;;;17.20;99.90;;;;;;6166636;23;20017;-82
2022/07/22 08:59:05;;;;;;;4.32;1.75;;;17.10;99.90;;;;;;6119022;23;20025;-83
2022/07/22 09:01:33;;;;;;;1.90;1.10;;;17.20;99.90;;;;;;6167091;23;20120;-81
2022/07/22 09:04:19;;;;;;;;;;;;;;;;;;;;;
2022/07/22 09:06:48;;;;;;;1.95;1.17;;;17.10;99.90;;;;;;6168178;23;20008;-82
2022/07/22 09:09:16;;;;;;;5.72;1.20;;;17.10;99.90;;;;;;6168630;23;20040;-82
2022/07/22 09:11:42;;;;;;;3.20;1.20;;;17.20;99.90;;;;;;6167621;23;20009;-81
2022/07/22 09:14:07;;;;;;;2.90;1.20;;;17.20;99.90;;;;;;6144139;23;20072;-84
2022/07/22 09:16:43;;;;;;;4.35;1.30;;;17.10;99.90;;;;;;6218327;23;20013;-84
2022/07/22 09:19:10;;;;;;;4.47;1.35;;;17.20;99.90;;;;;;6143582;23;20013;-82
2022/07/22 09:21:39;;;;;;;2.55;1.13;;;17.40;99.90;;;;;;6143971;23;20019;-81
2022/07/22 09:24:06;;;;;;;2.33;1.10;;;17.50;99.90;;;;;;6169147;23;20013;-84
2022/07/22 09:26:34;;;;;;;5.20;1.33;;;17.20;99.90;;;;;;6144778;23;20009;-85
2022/07/22 09:29:01;;;;;;;2.55;1.23;;;17.50;99.90;;;;;;6168606;23;20016;-84
2022/07/22 09:31:32;;;;;;;2.88;1.25;;;17.50;99.90;;;;;;6143759;23;20180;-83
2022/07/22 09:34:09;;;;;;;5.10;1.38;;;17.50;99.90;;;;;;6144066;23;20011;-82
2022/07/22 09:36:55;;;;;;;3.92;1.30;;;17.90;99.90;;;;;;6167965;23;20009;-84
2022/07/22 09:39:32;;;;;;;3.72;1.20;;;17.70;99.90;;;;;;6143474;23;20207;-81
2022/07/22 09:41:59;;;;;;;2.75;1.20;;;17.80;99.90;;;;;;6118904;23;20012;-84
2022/07/22 09:44:34;;;;;;;5.00;1.50;;;17.80;99.90;;;;;;6119583;23;20231;-82
2022/07/22 09:47:07;;;;;;;4.82;1.63;;;17.60;99.90;;;;;;6143657;23;20009;-81
2022/07/22 09:49:37;;;;;;;3.42;1.35;;;17.90;99.90;;;;;;6120984;23;20320;-83
2022/07/22 09:52:12;;;;;;;4.00;1.33;;;18.00;99.90;;;;;;6143247;23;20017;-84
2022/07/22 09:54:40;;;;;;;3.20;1.15;;;17.50;99.90;;;;;;6114164;23;20013;-83
2022/07/22 09:57:35;;;;;;;4.93;1.30;;;18.00;99.90;;;;;;6142026;23;20013;-86
2022/07/22 10:00:01;;;;;;;4.88;1.17;;;17.80;99.90;;;;;;6167254;23;20020;-82
2022/07/22 10:02:28;;;;;;;3.42;1.27;;;17.70;99.90;;;;;;6141318;23;20055;-83
2022/07/22 10:04:55;;;;;;;6.28;1.42;;;17.70;99.90;;;;;;6141840;23;20056;-83
2022/07/22 10:07:24;;;;;;;3.70;1.42;;;17.70;99.90;;;;;;6167710;23;20330;-83
2022/07/22 10:09:51;;;;;;;3.85;1.52;;;17.60;99.90;;;;;;6142324;23;20065;-82
2022/07/22 10:12:23;;;;;;;5.03;1.55;;;17.70;99.90;;;;;;6167469;23;20009;-80
2022/07/22 10:14:49;;;;;;;2.72;1.00;;;17.90;99.90;;;;;;6144273;23;20303;-85
2022/07/22 10:20:33;;;;;;;3.45;1.25;;;17.90;99.90;;;;;;6123867;23;20024;-83
2022/07/22 10:23:05;;;;;;;2.08;1.08;;;18.10;99.90;;;;;;6141220;23;20012;-85
2022/07/22 10:25:47;;;;;;;3.88;1.52;;;18.00;99.90;;;;;;6142960;23;20077;-84
2022/07/22 10:28:24;;;;;;;1.67;0.95;;;18.20;99.90;;;;;;6138095;23;20018;-83
2022/07/22 10:30:50;;;;;;;2.25;1.00;;;18.30;99.90;;;;;;6113178;23;20072;-83
2022/07/22 10:33:30;;;;;;;3.05;1.10;;;18.40;99.90;;;;;;6113946;23;20461;-84
2022/07/22 10:36:01;;;;;;;2.78;1.20;;;18.40;99.90;;;;;;6113847;23;20319;-83
2022/07/22 10:38:28;;;;;;;2.80;1.17;;;18.40;99.90;;;;;;6114253;23;20006;-84
2022/07/22 10:40:59;;;;;;;5.28;1.20;;;18.30;99.90;;;;;;6113991;23;20009;-84
2022/07/22 10:43:47;;;;;;;2.08;1.27;;;18.30;99.90;;;;;;6137809;23;20053;-83
2022/07/22 10:46:16;;;;;;;2.92;1.63;;;18.20;99.90;;;;;;6113802;23;20016;-83
2022/07/22 10:48:42;;;;;;;3.95;1.55;;;18.40;99.90;;;;;;6113527;23;20025;-84
2022/07/22 10:51:13;;;;;;;2.58;1.35;;;18.20;99.90;;;;;;6138171;23;20072;-87
2022/07/22 10:54:03;;;;;;;3.57;1.60;;;18.60;99.90;;;;;;6137181;23;20052;-83
2022/07/22 10:56:31;;;;;;;5.38;1.33;;;18.70;99.90;;;;;;6113731;23;20019;-86
2022/07/22 10:59:12;;;;;;;3.90;1.50;;;19.00;99.90;;;;;;6114045;23;20092;-84
2022/07/22 11:01:43;;;;;;;3.25;1.20;;;19.10;99.90;;;;;;6113742;23;20067;-85
2022/07/22 11:04:15;;;;;;;3.03;1.10;;;19.10;99.90;;;;;;6137956;23;20048;-84
2022/07/22 11:06:50;;;;;;;5.60;1.30;;;19.40;99.90;;;;;;6112638;23;20009;-85
2022/07/22 11:09:18;;;;;;;3.25;1.20;;;19.40;99.90;;;;;;6114292;23;20195;-86
2022/07/22 11:11:45;;;;;;;3.53;1.30;;;19.80;99.90;;;;;;6138591;23;20072;-85
2022/07/22 11:14:16;;;;;;;4.80;1.40;;;19.40;99.90;;;;;;6138597;23;20013;-85
2022/07/22 11:16:43;;;;;;;3.45;1.10;;;19.50;99.90;;;;;;6115202;23;20013;-85
2022/07/22 11:19:09;;;;;;;3.60;1.10;;;19.30;99.90;;;;;;6139918;23;20059;-84
2022/07/22 11:21:35;;;;;;;3.83;1.33;;;19.30;99.90;;;;;;6115587;23;20013;-84
2022/07/22 11:24:04;;;;;;;1.70;1.00;;;19.20;99.90;;;;;;6139790;23;20013;-84
2022/07/22 11:27:10;;;;;;;3.53;1.20;;;19.20;99.90;;;;;;6139293;23;20017;-84
2022/07/22 11:29:39;;;;;;;4.95;1.33;;;19.10;99.90;;;;;;6180777;23;20017;-84
2022/07/22 11:32:09;;;;;;;1.55;1.10;;;19.20;99.90;;;;;;6145139;23;20017;-84
2022/07/22 11:34:44;;;;;;;2.35;1.10;;;19.30;99.90;;;;;;6144618;23;20040;-83
2022/07/22 11:37:11;;;;;;;1.95;1.00;;;19.20;99.90;;;;;;6144710;23;20198;-82
2022/07/22 11:39:37;;;;;;;1.33;0.70;;;19.20;99.90;;;;;;6144851;23;20016;-85
2022/07/22 11:42:04;;;;;;;4.03;0.90;;;19.20;99.90;;;;;;6168848;23;20064;-71
2022/07/22 11:44:32;;;;;;;3.08;1.27;;;19.20;99.90;;;;;;6144569;23;20013;-80
2022/07/22 11:46:59;;;;;;;2.95;0.85;;;19.10;99.90;;;;;;6169355;23;20009;-82
2022/07/22 11:49:27;;;;;;;1.85;0.75;;;18.90;99.90;;;;;;6144267;23;20016;-82
2022/07/22 11:51:52;;;;;;;3.10;1.00;;;18.80;99.90;;;;;;6144603;23;20062;-82
2022/07/22 11:54:19;;;;;;;2.50;1.13;;;18.70;99.90;;;;;;6168964;23;20014;-82
2022/07/22 11:56:45;;;;;;;2.75;1.00;;;18.50;99.90;;;;;;6168316;23;20050;-81
2022/07/22 11:59:17;;;;;;;3.05;0.80;;;18.50;99.90;;;;;;6118949;23;20019;-81
2022/07/22 12:01:44;;;;;;;3.33;0.80;;;18.60;99.90;;;;;;6143950;23;20348;-82
2022/07/22 12:04:21;;;;;;;2.97;0.93;;;18.50;99.90;;;;;;6143523;23;20068;-82
2022/07/22 12:06:47;;;;;;;1.40;0.88;;;18.50;99.90;;;;;;6144312;23;20044;-81
2022/07/22 12:09:20;;;;;;;1.77;0.80;;;18.50;99.90;;;;;;6144060;23;20005;-82
2022/07/22 12:11:55;;;;;;;7.90;1.15;;;18.40;99.90;;;;;;6168357;23;20032;-82
2022/07/22 12:14:24;;;;;;;2.33;0.90;;;18.50;99.90;;;;;;6143765;23;20043;-83
2022/07/22 12:17:09;;;;;;;2.60;0.90;;;18.50;99.90;;;;;;6144114;23;20231;-83
2022/07/22 12:19:39;;;;;;;3.08;1.23;;;18.50;99.90;;;;;;6143781;23;20242;-83
2022/07/22 12:22:09;;;;;;;1.23;0.90;;;18.70;99.90;;;;;;6143300;23;20072;-82
2022/07/22 12:25:00;;;;;;;4.68;0.70;;;18.80;99.90;;;;;;6142992;23;20068;-82
2022/07/22 12:27:26;;;;;;;1.73;0.70;;;18.80;99.90;;;;;;6143191;23;20051;-83
2022/07/22 12:29:54;;;;;;;3.28;1.10;;;18.90;99.90;;;;;;6145764;23;20018;-82
2022/07/22 12:32:23;;;;;;;1.92;1.05;;;19.10;99.90;;;;;;6138832;23;20021;-83
2022/07/22 12:34:57;;;;;;;4.05;0.90;;;19.00;99.90;;;;;;6138941;23;20017;-83
2022/07/22 12:41:21;;;;;;;2.88;0.90;;;19.30;99.90;;;;;;6121736;23;20052;-81
2022/07/22 12:43:49;;;;;;;2.03;0.90;;;19.30;99.90;;;;;;6138804;23;20047;-80
2022/07/22 12:46:16;;;;;;;2.80;0.90;;;19.50;99.90;;;;;;6138598;23;20280;-81
2022/07/22 12:48:54;;;;;;;2.85;0.65;;;19.60;99.90;;;;;;6114408;23;20073;-81
2022/07/22 12:51:20;;;;;;;2.75;1.00;;;19.40;99.90;;;;;;6139035;23;20088;-80
2022/07/22 12:53:46;;;;;;;2.53;1.13;;;19.50;99.90;;;;;;6138374;23;20015;-80
2022/07/22 12:56:11;;;;;;;3.05;1.23;;;19.40;99.90;;;;;;6126918;23;20291;-80
2022/07/22 12:58:43;;;;;;;2.55;0.98;;;19.40;99.90;;;;;;6137977;23;20024;-81
2022/07/22 13:01:09;;;;;;;2.42;0.90;;;19.40;99.90;;;;;;6114146;23;20017;-80